createdAt,value
2018-08-07T00:02:00.545Z,22.98
2018-08-07T00:05:04.168Z,22.65
2018-08-07T00:08:08.474Z,22.99
2018-08-07T00:11:12.008Z,22.85
2018-08-07T00:14:15.641Z,22.74
2018-08-07T00:17:19.204Z,22.71
2018-08-07T00:20:22.788Z,22.79
2018-08-07T00:23:26.313Z,22.83
2018-08-07T00:26:29.937Z,22.71
2018-08-07T00:29:33.464Z,22.77
2018-08-07T00:32:37.524Z,22.88
2018-08-07T00:35:41.164Z,22.79
2018-08-07T00:38:46.760Z,22.81
2018-08-07T00:41:50.368Z,22.81
2018-08-07T00:44:53.909Z,22.81
2018-08-07T00:47:58.418Z,22.72
2018-08-07T00:51:01.973Z,22.66
2018-08-07T00:54:05.522Z,22.73
2018-08-07T00:57:10.227Z,22.76
2018-08-07T01:00:14.511Z,22.74
2018-08-07T01:03:19.064Z,22.75
2018-08-07T01:06:22.607Z,22.63
2018-08-07T01:09:26.130Z,22.56
2018-08-07T01:12:29.648Z,22.62
2018-08-07T01:15:33.208Z,22.60
2018-08-07T01:18:36.732Z,22.42
2018-08-07T01:21:40.271Z,22.27
2018-08-07T01:24:43.901Z,22.24
2018-08-07T01:27:47.543Z,22.23
2018-08-07T01:30:51.156Z,22.24
2018-08-07T01:33:54.944Z,22.24
2018-08-07T01:36:59.515Z,22.07
2018-08-07T01:40:03.151Z,22.09
2018-08-07T01:43:07.700Z,22.16
2018-08-07T01:46:11.223Z,22.21
2018-08-07T01:49:16.752Z,22.06
2018-08-07T01:52:20.296Z,22.24
2018-08-07T01:55:25.557Z,22.09
2018-08-07T01:58:29.161Z,22.01
2018-08-07T02:01:32.732Z,22.06
2018-08-07T02:04:36.209Z,22.00
2018-08-07T02:07:39.984Z,21.95
2018-08-07T02:10:45.584Z,21.93
2018-08-07T02:13:49.152Z,21.86
2018-08-07T02:16:52.744Z,21.86
2018-08-07T02:19:58.201Z,21.88
2018-08-07T02:23:01.726Z,21.72
2018-08-07T02:26:05.456Z,21.72
2018-08-07T02:29:08.969Z,21.63
2018-08-07T02:32:12.602Z,21.54
2018-08-07T02:35:16.895Z,21.72
2018-08-07T02:38:20.459Z,21.41
2018-08-07T02:41:24.008Z,21.43
2018-08-07T02:44:27.636Z,21.51
2018-08-07T02:47:31.153Z,21.56
2018-08-07T02:50:34.741Z,21.49
2018-08-07T02:53:38.256Z,21.41
2018-08-07T02:56:41.715Z,21.40
2018-08-07T02:59:45.306Z,21.43
2018-08-07T03:02:49.004Z,21.36
2018-08-07T03:05:52.594Z,21.40
2018-08-07T03:08:56.152Z,21.45
2018-08-07T03:11:59.664Z,21.41
2018-08-07T03:15:03.227Z,21.44
2018-08-07T03:18:07.185Z,21.44
2018-08-07T03:21:10.698Z,21.64
2018-08-07T03:24:14.368Z,21.54
2018-08-07T03:27:17.896Z,21.68
2018-08-07T03:30:21.585Z,21.50
2018-08-07T03:33:25.118Z,21.48
2018-08-07T03:36:28.676Z,21.42
2018-08-07T03:39:32.192Z,21.51
2018-08-07T03:42:35.745Z,21.56
2018-08-07T03:45:39.255Z,21.54
2018-08-07T03:48:42.779Z,21.51
2018-08-07T03:51:46.290Z,21.77
2018-08-07T03:54:51.831Z,21.46
2018-08-07T03:57:55.353Z,21.78
2018-08-07T04:00:58.956Z,21.82
2018-08-07T04:04:02.531Z,21.76
2018-08-07T04:07:06.314Z,21.80
2018-08-07T04:10:12.278Z,21.77
2018-08-07T04:13:15.808Z,21.83
2018-08-07T04:16:19.357Z,21.74
2018-08-07T04:19:23.896Z,21.75
2018-08-07T04:22:27.425Z,21.90
2018-08-07T04:25:31.024Z,21.94
2018-08-07T04:28:34.610Z,21.96
2018-08-07T04:31:41.608Z,21.82
2018-08-07T04:34:45.309Z,21.66
2018-08-07T04:37:48.928Z,21.88
2018-08-07T04:40:52.488Z,21.79
2018-08-07T04:43:56.043Z,21.97
2018-08-07T04:46:59.640Z,22.02
2018-08-07T04:50:03.264Z,21.76
2018-08-07T04:53:06.816Z,21.65
2018-08-07T04:56:10.527Z,21.71
2018-08-07T04:59:14.122Z,21.57
2018-08-07T05:02:18.849Z,21.70
2018-08-07T05:05:22.510Z,21.45
2018-08-07T05:08:26.240Z,21.39
2018-08-07T05:11:29.837Z,21.40
2018-08-07T05:14:35.221Z,21.04
2018-08-07T05:17:39.512Z,21.29
2018-08-07T05:20:43.219Z,21.16
2018-08-07T05:23:48.488Z,20.99
2018-08-07T05:26:54.290Z,20.99
2018-08-07T05:29:59.139Z,20.87
2018-08-07T05:33:02.782Z,21.03
2018-08-07T05:36:06.451Z,21.27
2018-08-07T05:39:11.325Z,21.35
2018-08-07T05:42:15.106Z,21.33
2018-08-07T05:45:19.022Z,21.31
2018-08-07T05:48:22.842Z,21.31
2018-08-07T05:51:27.186Z,21.31
2018-08-07T05:54:30.827Z,21.32
2018-08-07T05:57:34.717Z,21.45
2018-08-07T06:00:38.296Z,21.50
2018-08-07T06:03:43.172Z,21.59
2018-08-07T06:06:46.983Z,21.64
2018-08-07T06:09:50.539Z,21.67
2018-08-07T06:12:55.088Z,21.67
2018-08-07T06:15:58.609Z,21.73
2018-08-07T06:19:02.371Z,21.84
2018-08-07T06:22:07.110Z,21.92
2018-08-07T06:25:11.837Z,21.97
2018-08-07T06:28:15.424Z,22.06
2018-08-07T06:31:20.088Z,22.14
2018-08-07T06:34:23.707Z,22.21
2018-08-07T06:37:28.288Z,22.29
2018-08-07T06:40:31.916Z,22.35
2018-08-07T06:43:35.518Z,22.43
2018-08-07T06:46:39.186Z,22.52
2018-08-07T06:49:42.768Z,22.61
2018-08-07T06:52:47.096Z,22.66
2018-08-07T06:55:51.640Z,22.79
2018-08-07T06:58:55.305Z,22.86
2018-08-07T07:01:58.936Z,23.12
2018-08-07T07:05:04.469Z,23.38
2018-08-07T07:08:07.958Z,23.55
2018-08-07T07:11:11.618Z,23.68
2018-08-07T07:14:15.283Z,23.79
2018-08-07T07:17:19.901Z,23.86
2018-08-07T07:20:23.462Z,23.98
2018-08-07T07:23:27.079Z,24.18
2018-08-07T07:26:30.842Z,24.25
2018-08-07T07:29:34.379Z,24.43
2018-08-07T07:32:37.861Z,24.53
2018-08-07T07:35:41.425Z,24.73
2018-08-07T07:38:45.640Z,24.90
2018-08-07T07:41:50.144Z,25.05
2018-08-07T07:44:53.653Z,25.19
2018-08-07T07:47:58.058Z,25.33
2018-08-07T07:51:03.729Z,25.40
2018-08-07T07:54:07.307Z,25.55
2018-08-07T07:57:10.817Z,25.84
2018-08-07T08:00:22.319Z,25.78
2018-08-07T08:03:25.942Z,26.06
2018-08-07T08:06:29.462Z,26.16
2018-08-07T08:09:33.089Z,26.46
2018-08-07T08:12:37.300Z,26.62
2018-08-07T08:15:40.820Z,26.78
2018-08-07T08:18:45.112Z,27.01
2018-08-07T08:21:48.775Z,27.18
2018-08-07T08:24:53.467Z,27.25
2018-08-07T08:27:57.091Z,27.59
2018-08-07T08:31:02.674Z,27.85
2018-08-07T08:34:06.334Z,28.03
2018-08-07T08:37:09.893Z,28.35
2018-08-07T08:40:16.004Z,28.43
2018-08-07T08:43:19.532Z,28.85
2018-08-07T08:46:23.227Z,29.03
2018-08-07T08:49:26.785Z,29.18
2018-08-07T08:52:30.301Z,29.34
2018-08-07T08:55:33.933Z,29.34
2018-08-07T08:58:37.634Z,29.62
2018-08-07T09:01:41.308Z,29.78
2018-08-07T09:04:44.897Z,29.80
2018-08-07T09:07:48.637Z,29.94
2018-08-07T09:10:52.267Z,30.19
2018-08-07T09:13:56.440Z,30.23
2018-08-07T09:17:00.952Z,30.76
2018-08-07T09:20:05.970Z,31.05
2018-08-07T09:23:09.592Z,31.15
2018-08-07T09:26:13.304Z,31.34
2018-08-07T09:29:17.081Z,31.62
2018-08-07T09:32:20.849Z,31.77
2018-08-07T09:35:24.843Z,31.84
2018-08-07T09:38:29.461Z,32.04
2018-08-07T09:41:34.777Z,32.11
2018-08-07T09:44:38.463Z,32.30
2018-08-07T09:47:42.281Z,32.57
2018-08-07T09:50:52.447Z,32.78
2018-08-07T09:53:58.233Z,32.87
2018-08-07T09:57:02.674Z,33.07
2018-08-07T10:00:20.782Z,32.93
2018-08-07T10:03:25.737Z,33.15
2018-08-07T10:06:33.934Z,33.41
2018-08-07T10:09:38.204Z,33.72
2018-08-07T10:13:26.962Z,33.66
2018-08-07T10:16:37.270Z,33.70
2018-08-07T10:19:43.182Z,34.10
2018-08-07T10:22:47.815Z,34.42
2018-08-07T10:25:51.647Z,34.13
2018-08-07T10:28:55.394Z,34.02
2018-08-07T10:31:58.976Z,34.11
2018-08-07T10:35:02.971Z,34.32
2018-08-07T10:38:06.606Z,34.57
2018-08-07T10:41:11.611Z,34.41
2018-08-07T10:44:16.311Z,34.47
2018-08-07T10:47:37.220Z,34.66
2018-08-07T10:50:49.871Z,34.49
2018-08-07T10:53:54.359Z,34.28
2018-08-07T10:56:58.931Z,34.80
2018-08-07T11:00:11.606Z,35.01
2018-08-07T11:03:17.254Z,35.53
2018-08-07T11:06:22.078Z,35.23
2018-08-07T11:09:25.690Z,35.72
2018-08-07T11:12:29.992Z,35.82
2018-08-07T11:15:35.669Z,35.94
2018-08-07T11:18:44.726Z,36.21
2018-08-07T11:21:50.805Z,36.01
2018-08-07T11:24:56.808Z,36.44
2018-08-07T11:28:01.782Z,36.64
2018-08-07T11:31:07.391Z,36.71
2018-08-07T11:34:11.133Z,36.37
2018-08-07T11:37:14.738Z,36.21
2018-08-07T11:40:20.568Z,36.59
2018-08-07T11:43:24.068Z,36.86
2018-08-07T11:46:27.659Z,36.96
2018-08-07T11:49:31.297Z,37.14
2018-08-07T11:52:34.875Z,37.34
2018-08-07T11:55:38.436Z,36.87
2018-08-07T11:58:42.288Z,36.98
2018-08-07T12:01:46.400Z,36.66
2018-08-07T12:04:49.953Z,36.86
2018-08-07T12:07:53.621Z,37.44
2018-08-07T12:10:57.314Z,37.22
2018-08-07T12:14:00.921Z,37.42
2018-08-07T12:17:04.447Z,37.49
2018-08-07T12:20:08.335Z,37.31
2018-08-07T12:23:13.961Z,37.21
2018-08-07T12:26:17.410Z,37.82
2018-08-07T12:29:22.915Z,37.87
2018-08-07T12:32:26.450Z,37.61
2018-08-07T12:35:29.949Z,37.99
2018-08-07T12:38:33.489Z,38.10
2018-08-07T12:41:37.128Z,37.93
2018-08-07T12:44:41.732Z,38.41
2018-08-07T12:47:47.980Z,38.33
2018-08-07T12:50:52.578Z,38.39
2018-08-07T12:53:57.315Z,38.33
2018-08-07T12:57:03.005Z,38.01
2018-08-07T13:00:10.835Z,38.49
2018-08-07T13:03:14.368Z,38.79
2018-08-07T13:06:18.011Z,39.04
2018-08-07T13:09:21.582Z,38.73
2018-08-07T13:12:25.773Z,38.78
2018-08-07T13:15:30.013Z,38.58
2018-08-07T13:18:33.723Z,38.68
2018-08-07T13:21:37.328Z,38.55
2018-08-07T13:24:40.907Z,38.68
2018-08-07T13:27:44.562Z,38.73
2018-08-07T13:30:48.144Z,39.00
2018-08-07T13:33:51.684Z,39.18
2018-08-07T13:36:55.841Z,39.19
2018-08-07T13:39:59.352Z,38.96
2018-08-07T13:43:02.956Z,39.06
2018-08-07T13:46:07.540Z,38.95
2018-08-07T13:49:11.702Z,38.97
2018-08-07T13:52:15.290Z,39.21
2018-08-07T13:55:20.399Z,39.08
2018-08-07T13:58:30.997Z,39.10
2018-08-07T14:01:34.651Z,38.93
2018-08-07T14:04:38.550Z,38.57
2018-08-07T14:07:58.145Z,38.83
2018-08-07T14:11:03.051Z,38.85
2018-08-07T14:14:08.931Z,38.05
2018-08-07T14:17:12.791Z,38.19
2018-08-07T14:20:17.935Z,37.99
2018-08-07T14:23:22.543Z,38.52
2018-08-07T14:26:27.423Z,38.60
2018-08-07T14:29:37.759Z,38.34
2018-08-07T14:39:32.558Z,38.02
2018-08-07T14:42:36.719Z,37.87
2018-08-07T14:45:43.559Z,37.50
2018-08-07T14:48:47.484Z,37.66
2018-08-07T14:51:54.765Z,37.62
2018-08-07T14:54:58.532Z,37.43
2018-08-07T14:58:03.344Z,37.27
2018-08-07T15:01:07.895Z,36.14
2018-08-07T15:04:11.391Z,35.68
2018-08-07T15:07:15.131Z,35.37
2018-08-07T16:27:50.784Z,35.51
2018-08-07T16:30:54.804Z,35.37
2018-08-07T16:33:58.648Z,35.40
2018-08-07T17:18:55.076Z,34.75
2018-08-07T17:21:59.035Z,34.74
2018-08-07T18:06:50.939Z,32.76
2018-08-07T18:13:16.443Z,32.43
2018-08-07T18:16:20.765Z,32.15
2018-08-07T18:19:44.752Z,32.09
2018-08-07T18:22:52.601Z,31.91
2018-08-07T18:25:59.076Z,31.77
2018-08-07T18:29:08.783Z,31.66
2018-08-07T18:32:20.118Z,31.60
2018-08-07T18:35:31.911Z,31.25
2018-08-07T18:38:37.865Z,31.14
2018-08-07T18:41:45.269Z,30.90
2018-08-07T18:44:51.826Z,30.71
2018-08-07T18:47:57.236Z,30.54
2018-08-07T18:51:01.569Z,30.54
2018-08-07T18:54:11.474Z,30.43
2018-08-07T18:57:18.868Z,30.27
2018-08-07T19:00:27.132Z,30.16
2018-08-07T19:03:35.913Z,30.29
2018-08-07T19:06:39.876Z,30.27
2018-08-07T19:09:45.455Z,30.13
2018-08-07T19:12:51.330Z,29.97
2018-08-07T19:15:57.189Z,30.00
2018-08-07T19:19:04.296Z,29.99
2018-08-07T19:22:09.779Z,29.99
2018-08-07T19:25:19.367Z,29.90
2018-08-07T19:28:23.299Z,29.78
2018-08-07T19:31:26.929Z,29.62
2018-08-07T20:00:23.136Z,29.69
2018-08-07T20:31:20.018Z,29.27
2018-08-07T20:34:24.148Z,29.20
2018-08-07T20:37:27.920Z,29.24
2018-08-07T20:40:31.627Z,29.19
2018-08-07T20:43:36.139Z,29.26
2018-08-07T20:46:41.119Z,29.18
2018-08-07T20:49:44.857Z,29.03
2018-08-07T20:52:48.572Z,28.88
2018-08-07T20:55:52.192Z,28.84
2018-08-07T20:58:55.877Z,28.85
2018-08-07T21:01:59.526Z,28.75
2018-08-07T21:05:03.269Z,28.69
2018-08-07T21:08:07.061Z,28.71
2018-08-07T21:11:10.745Z,28.67
2018-08-07T21:14:14.438Z,28.60
2018-08-07T21:17:18.227Z,28.59
2018-08-07T21:20:22.725Z,28.61
2018-08-07T21:23:27.389Z,28.61
2018-08-07T21:26:30.902Z,28.71
2018-08-07T21:29:34.605Z,28.60
2018-08-07T21:32:38.272Z,28.55
2018-08-07T21:35:41.933Z,28.35
2018-08-07T21:38:46.508Z,28.46
2018-08-07T21:41:50.075Z,28.45
2018-08-07T21:44:53.618Z,28.47
2018-08-07T21:47:57.179Z,28.48
2018-08-07T21:51:00.765Z,28.40
2018-08-07T21:54:04.400Z,28.40
2018-08-07T21:57:08.001Z,28.19
2018-08-07T22:00:22.417Z,28.16
2018-08-07T22:03:25.981Z,28.08
2018-08-07T22:06:29.575Z,28.13
2018-08-07T22:09:33.380Z,28.03
2018-08-07T22:12:38.108Z,27.97
2018-08-07T22:15:41.667Z,27.93
2018-08-07T22:18:45.191Z,27.90
2018-08-07T22:26:14.253Z,27.69
2018-08-07T22:55:05.879Z,27.43
2018-08-07T22:58:50.630Z,27.42
2018-08-07T23:05:41.001Z,27.30
2018-08-07T23:12:14.189Z,27.24
2018-08-07T23:15:20.275Z,27.16
2018-08-07T23:18:24.009Z,27.19
2018-08-07T23:21:28.733Z,27.14
2018-08-07T23:24:32.769Z,27.21
2018-08-07T23:27:36.813Z,26.98
2018-08-07T23:30:40.373Z,27.03
2018-08-07T23:33:44.201Z,26.99
2018-08-07T23:36:48.048Z,26.91
2018-08-07T23:39:51.688Z,26.90
2018-08-07T23:43:02.095Z,26.93
2018-08-07T23:46:05.789Z,26.73
2018-08-07T23:49:09.435Z,26.59
2018-08-07T23:52:13.041Z,26.69
2018-08-07T23:55:17.738Z,26.55
2018-08-07T23:58:21.403Z,26.41
